sensor_id;sensor_type;location;lat;lon;timestamp;P1;durP1;ratioP1;P2;durP2;ratioP2
70414;SDS011;57837;52.064;113.478;2023-04-01T00:01:37;6.80;;;2.15;;
70414;SDS011;57837;52.064;113.478;2023-04-01T00:04:40;4.03;;;1.63;;
70414;SDS011;57837;52.064;113.478;2023-04-01T00:07:44;6.47;;;2.50;;
70414;SDS011;57837;52.064;113.478;2023-04-01T00:10:49;4.13;;;2.00;;
70414;SDS011;57837;52.064;113.478;2023-04-01T00:13:53;4.27;;;2.10;;
70414;SDS011;57837;52.064;113.478;2023-04-01T00:16:57;8.07;;;1.83;;
70414;SDS011;57837;52.064;113.478;2023-04-01T00:20:01;6.63;;;1.90;;
70414;SDS011;57837;52.064;113.478;2023-04-01T00:23:05;8.00;;;2.58;;
70414;SDS011;57837;52.064;113.478;2023-04-01T00:26:09;9.73;;;3.37;;
70414;SDS011;57837;52.064;113.478;2023-04-01T00:29:15;2.60;;;1.40;;
70414;SDS011;57837;52.064;113.478;2023-04-01T00:32:19;9.57;;;1.90;;
70414;SDS011;57837;52.064;113.478;2023-04-01T00:35:23;4.57;;;1.67;;
70414;SDS011;57837;52.064;113.478;2023-04-01T00:38:26;7.05;;;1.70;;
70414;SDS011;57837;52.064;113.478;2023-04-01T00:41:30;5.70;;;2.20;;
70414;SDS011;57837;52.064;113.478;2023-04-01T00:44:34;8.00;;;2.10;;
70414;SDS011;57837;52.064;113.478;2023-04-01T00:47:40;2.28;;;1.40;;
70414;SDS011;57837;52.064;113.478;2023-04-01T00:50:46;6.25;;;1.65;;
70414;SDS011;57837;52.064;113.478;2023-04-01T00:53:53;9.48;;;2.05;;
70414;SDS011;57837;52.064;113.478;2023-04-01T00:57:02;8.57;;;2.00;;
70414;SDS011;57837;52.064;113.478;2023-04-01T01:00:10;4.77;;;1.57;;
70414;SDS011;57837;52.064;113.478;2023-04-01T01:03:17;4.20;;;1.92;;
70414;SDS011;57837;52.064;113.478;2023-04-01T01:10:46;8.50;;;2.03;;
70414;SDS011;57837;52.064;113.478;2023-04-01T01:13:55;10.10;;;2.47;;
70414;SDS011;57837;52.064;113.478;2023-04-01T01:17:14;8.40;;;1.93;;
70414;SDS011;57837;52.064;113.478;2023-04-01T01:27:26;8.63;;;2.45;;
70414;SDS011;57837;52.064;113.478;2023-04-01T01:30:39;3.80;;;1.70;;
70414;SDS011;57837;52.064;113.478;2023-04-01T01:37:20;17.95;;;4.70;;
70414;SDS011;57837;52.064;113.478;2023-04-01T01:40:26;5.90;;;2.00;;
70414;SDS011;57837;52.064;113.478;2023-04-01T01:43:50;8.32;;;2.28;;
70414;SDS011;57837;52.064;113.478;2023-04-01T01:46:55;5.63;;;1.60;;
70414;SDS011;57837;52.064;113.478;2023-04-01T01:49:59;3.97;;;1.70;;
70414;SDS011;57837;52.064;113.478;2023-04-01T01:53:07;10.45;;;3.10;;
70414;SDS011;57837;52.064;113.478;2023-04-01T01:56:12;8.65;;;2.55;;
70414;SDS011;57837;52.064;113.478;2023-04-01T01:59:18;5.72;;;2.30;;
70414;SDS011;57837;52.064;113.478;2023-04-01T02:02:23;7.63;;;2.90;;
70414;SDS011;57837;52.064;113.478;2023-04-01T02:05:29;13.17;;;4.20;;
70414;SDS011;57837;52.064;113.478;2023-04-01T02:08:43;6.97;;;2.55;;
70414;SDS011;57837;52.064;113.478;2023-04-01T02:11:52;13.27;;;3.30;;
70414;SDS011;57837;52.064;113.478;2023-04-01T02:15:13;13.15;;;3.72;;
70414;SDS011;57837;52.064;113.478;2023-04-01T02:18:18;35.80;;;4.87;;
70414;SDS011;57837;52.064;113.478;2023-04-01T02:21:24;9.47;;;4.47;;
70414;SDS011;57837;52.064;113.478;2023-04-01T02:24:31;3.38;;;1.30;;
70414;SDS011;57837;52.064;113.478;2023-04-01T02:27:39;6.95;;;2.42;;
70414;SDS011;57837;52.064;113.478;2023-04-01T02:30:44;11.70;;;2.95;;
70414;SDS011;57837;52.064;113.478;2023-04-01T02:33:48;27.87;;;2.90;;
70414;SDS011;57837;52.064;113.478;2023-04-01T02:36:52;27.03;;;3.83;;
70414;SDS011;57837;52.064;113.478;2023-04-01T02:40:01;11.45;;;2.15;;
70414;SDS011;57837;52.064;113.478;2023-04-01T02:43:05;32.67;;;3.75;;
70414;SDS011;57837;52.064;113.478;2023-04-01T02:46:10;4.25;;;1.70;;
70414;SDS011;57837;52.064;113.478;2023-04-01T02:49:13;4.87;;;1.40;;
70414;SDS011;57837;52.064;113.478;2023-04-01T02:52:18;10.20;;;2.17;;
70414;SDS011;57837;52.064;113.478;2023-04-01T02:55:21;11.82;;;3.00;;
70414;SDS011;57837;52.064;113.478;2023-04-01T02:58:24;7.63;;;2.13;;
70414;SDS011;57837;52.064;113.478;2023-04-01T03:01:28;15.63;;;3.35;;
70414;SDS011;57837;52.064;113.478;2023-04-01T03:04:32;23.47;;;4.70;;
70414;SDS011;57837;52.064;113.478;2023-04-01T03:07:35;8.43;;;2.90;;
70414;SDS011;57837;52.064;113.478;2023-04-01T03:10:39;9.10;;;1.83;;
70414;SDS011;57837;52.064;113.478;2023-04-01T03:13:42;6.28;;;1.73;;
70414;SDS011;57837;52.064;113.478;2023-04-01T03:16:46;8.95;;;2.47;;
70414;SDS011;57837;52.064;113.478;2023-04-01T03:19:50;8.47;;;2.47;;
70414;SDS011;57837;52.064;113.478;2023-04-01T03:23:17;9.60;;;2.63;;
70414;SDS011;57837;52.064;113.478;2023-04-01T03:26:21;6.60;;;1.88;;
70414;SDS011;57837;52.064;113.478;2023-04-01T03:29:25;7.70;;;2.65;;
70414;SDS011;57837;52.064;113.478;2023-04-01T03:32:28;10.07;;;1.85;;
70414;SDS011;57837;52.064;113.478;2023-04-01T03:35:31;8.10;;;1.97;;
70414;SDS011;57837;52.064;113.478;2023-04-01T03:38:36;7.63;;;1.30;;
70414;SDS011;57837;52.064;113.478;2023-04-01T03:41:39;6.45;;;1.50;;
70414;SDS011;57837;52.064;113.478;2023-04-01T03:44:42;7.75;;;2.10;;
70414;SDS011;57837;52.064;113.478;2023-04-01T03:47:46;24.98;;;2.92;;
70414;SDS011;57837;52.064;113.478;2023-04-01T03:50:50;6.43;;;2.33;;
70414;SDS011;57837;52.064;113.478;2023-04-01T03:53:55;3.10;;;1.60;;
70414;SDS011;57837;52.064;113.478;2023-04-01T03:56:59;13.93;;;3.85;;
70414;SDS011;57837;52.064;113.478;2023-04-01T04:00:04;8.25;;;3.15;;
70414;SDS011;57837;52.064;113.478;2023-04-01T04:03:14;10.50;;;3.67;;
70414;SDS011;57837;52.064;113.478;2023-04-01T04:06:17;6.17;;;2.20;;
70414;SDS011;57837;52.064;113.478;2023-04-01T04:09:22;5.93;;;2.40;;
70414;SDS011;57837;52.064;113.478;2023-04-01T04:12:26;8.10;;;1.55;;
70414;SDS011;57837;52.064;113.478;2023-04-01T04:15:30;8.65;;;1.90;;
70414;SDS011;57837;52.064;113.478;2023-04-01T04:18:34;12.45;;;3.00;;
70414;SDS011;57837;52.064;113.478;2023-04-01T04:21:39;7.50;;;2.20;;
70414;SDS011;57837;52.064;113.478;2023-04-01T04:24:43;7.00;;;1.63;;
70414;SDS011;57837;52.064;113.478;2023-04-01T04:27:47;9.55;;;2.25;;
70414;SDS011;57837;52.064;113.478;2023-04-01T04:30:52;4.82;;;2.10;;
70414;SDS011;57837;52.064;113.478;2023-04-01T04:33:58;10.70;;;3.10;;
70414;SDS011;57837;52.064;113.478;2023-04-01T04:37:07;6.40;;;3.00;;
70414;SDS011;57837;52.064;113.478;2023-04-01T04:40:11;10.20;;;2.87;;
70414;SDS011;57837;52.064;113.478;2023-04-01T04:43:16;13.93;;;4.32;;
70414;SDS011;57837;52.064;113.478;2023-04-01T04:46:19;4.95;;;1.83;;
70414;SDS011;57837;52.064;113.478;2023-04-01T04:49:28;4.03;;;1.60;;
70414;SDS011;57837;52.064;113.478;2023-04-01T04:52:32;6.80;;;1.40;;
70414;SDS011;57837;52.064;113.478;2023-04-01T04:55:34;12.60;;;2.37;;
70414;SDS011;57837;52.064;113.478;2023-04-01T04:59:17;8.10;;;2.35;;
70414;SDS011;57837;52.064;113.478;2023-04-01T05:02:29;7.28;;;2.13;;
70414;SDS011;57837;52.064;113.478;2023-04-01T05:05:33;8.10;;;3.72;;
70414;SDS011;57837;52.064;113.478;2023-04-01T05:08:37;9.23;;;2.70;;
70414;SDS011;57837;52.064;113.478;2023-04-01T05:11:43;7.47;;;2.30;;
70414;SDS011;57837;52.064;113.478;2023-04-01T05:14:47;9.98;;;3.58;;
70414;SDS011;57837;52.064;113.478;2023-04-01T05:17:51;9.45;;;3.55;;
70414;SDS011;57837;52.064;113.478;2023-04-01T05:20:54;21.13;;;6.90;;
70414;SDS011;57837;52.064;113.478;2023-04-01T05:23:59;13.90;;;3.73;;
70414;SDS011;57837;52.064;113.478;2023-04-01T05:27:03;8.53;;;2.70;;
70414;SDS011;57837;52.064;113.478;2023-04-01T05:30:09;7.35;;;2.20;;
70414;SDS011;57837;52.064;113.478;2023-04-01T05:33:33;5.03;;;2.60;;
70414;SDS011;57837;52.064;113.478;2023-04-01T05:36:38;7.05;;;2.53;;
70414;SDS011;57837;52.064;113.478;2023-04-01T05:39:42;6.93;;;2.97;;
70414;SDS011;57837;52.064;113.478;2023-04-01T05:42:46;5.80;;;3.30;;
70414;SDS011;57837;52.064;113.478;2023-04-01T05:45:51;10.18;;;3.00;;
70414;SDS011;57837;52.064;113.478;2023-04-01T05:49:10;9.75;;;2.30;;
70414;SDS011;57837;52.064;113.478;2023-04-01T05:52:14;8.88;;;2.75;;
70414;SDS011;57837;52.064;113.478;2023-04-01T05:55:19;10.10;;;3.63;;
70414;SDS011;57837;52.064;113.478;2023-04-01T05:58:24;10.97;;;3.47;;
70414;SDS011;57837;52.064;113.478;2023-04-01T06:01:27;5.50;;;2.15;;
70414;SDS011;57837;52.064;113.478;2023-04-01T06:04:36;4.18;;;1.70;;
70414;SDS011;57837;52.064;113.478;2023-04-01T06:07:43;12.70;;;2.58;;
70414;SDS011;57837;52.064;113.478;2023-04-01T06:24:41;8.88;;;2.88;;
70414;SDS011;57837;52.064;113.478;2023-04-01T06:38:00;5.25;;;2.00;;
70414;SDS011;57837;52.064;113.478;2023-04-01T06:41:26;9.20;;;2.10;;
70414;SDS011;57837;52.064;113.478;2023-04-01T06:55:55;10.07;;;2.80;;
70414;SDS011;57837;52.064;113.478;2023-04-01T06:59:27;9.73;;;3.20;;
70414;SDS011;57837;52.064;113.478;2023-04-01T07:02:41;17.07;;;3.90;;
70414;SDS011;57837;52.064;113.478;2023-04-01T07:05:51;16.53;;;3.67;;
70414;SDS011;57837;52.064;113.478;2023-04-01T07:08:58;14.52;;;2.40;;
70414;SDS011;57837;52.064;113.478;2023-04-01T07:15:55;19.42;;;2.60;;
70414;SDS011;57837;52.064;113.478;2023-04-01T07:22:42;6.40;;;1.87;;
70414;SDS011;57837;52.064;113.478;2023-04-01T07:26:01;9.30;;;2.20;;
70414;SDS011;57837;52.064;113.478;2023-04-01T07:29:28;10.60;;;2.00;;
70414;SDS011;57837;52.064;113.478;2023-04-01T07:32:38;8.15;;;3.35;;
70414;SDS011;57837;52.064;113.478;2023-04-01T07:36:10;7.53;;;2.30;;
70414;SDS011;57837;52.064;113.478;2023-04-01T07:39:37;9.27;;;2.63;;
70414;SDS011;57837;52.064;113.478;2023-04-01T07:53:53;3.23;;;1.60;;
70414;SDS011;57837;52.064;113.478;2023-04-01T08:07:45;6.30;;;1.67;;
70414;SDS011;57837;52.064;113.478;2023-04-01T08:11:25;7.33;;;2.00;;
70414;SDS011;57837;52.064;113.478;2023-04-01T08:22:14;9.25;;;2.92;;
70414;SDS011;57837;52.064;113.478;2023-04-01T08:25:27;5.60;;;2.05;;
70414;SDS011;57837;52.064;113.478;2023-04-01T08:28:45;3.77;;;1.90;;
70414;SDS011;57837;52.064;113.478;2023-04-01T08:32:00;14.57;;;1.90;;
70414;SDS011;57837;52.064;113.478;2023-04-01T08:38:40;4.00;;;1.58;;
70414;SDS011;57837;52.064;113.478;2023-04-01T08:52:52;7.80;;;2.28;;
70414;SDS011;57837;52.064;113.478;2023-04-01T08:56:18;9.80;;;2.10;;
70414;SDS011;57837;52.064;113.478;2023-04-01T08:59:32;11.05;;;2.47;;
70414;SDS011;57837;52.064;113.478;2023-04-01T09:07:18;6.47;;;1.97;;
70414;SDS011;57837;52.064;113.478;2023-04-01T09:10:28;31.40;;;3.40;;
70414;SDS011;57837;52.064;113.478;2023-04-01T09:25:15;16.00;;;5.90;;
70414;SDS011;57837;52.064;113.478;2023-04-01T09:32:04;16.63;;;5.35;;
70414;SDS011;57837;52.064;113.478;2023-04-01T09:38:56;17.57;;;3.17;;
70414;SDS011;57837;52.064;113.478;2023-04-01T09:45:35;11.98;;;3.50;;
70414;SDS011;57837;52.064;113.478;2023-04-01T09:48:52;13.88;;;2.90;;
70414;SDS011;57837;52.064;113.478;2023-04-01T10:45:44;38.78;;;7.72;;
70414;SDS011;57837;52.064;113.478;2023-04-01T10:52:19;37.50;;;15.10;;
70414;SDS011;57837;52.064;113.478;2023-04-01T11:20:33;22.75;;;8.85;;
70414;SDS011;57837;52.064;113.478;2023-04-01T11:28:06;25.15;;;9.55;;
70414;SDS011;57837;52.064;113.478;2023-04-01T11:46:05;44.47;;;12.57;;
70414;SDS011;57837;52.064;113.478;2023-04-01T12:23:42;51.72;;;18.23;;
70414;SDS011;57837;52.064;113.478;2023-04-01T12:26:59;49.20;;;18.92;;
70414;SDS011;57837;52.064;113.478;2023-04-01T12:47:12;24.38;;;7.55;;
70414;SDS011;57837;52.064;113.478;2023-04-01T12:53:47;24.50;;;9.75;;
70414;SDS011;57837;52.064;113.478;2023-04-01T13:10:01;25.40;;;8.43;;
70414;SDS011;57837;52.064;113.478;2023-04-01T13:16:26;28.70;;;9.20;;
70414;SDS011;57837;52.064;113.478;2023-04-01T13:19:38;30.52;;;11.82;;
70414;SDS011;57837;52.064;113.478;2023-04-01T13:36:06;20.75;;;7.93;;
70414;SDS011;57837;52.064;113.478;2023-04-01T13:39:33;19.47;;;7.53;;
70414;SDS011;57837;52.064;113.478;2023-04-01T13:46:29;12.82;;;5.82;;
70414;SDS011;57837;52.064;113.478;2023-04-01T13:49:57;15.85;;;4.82;;
70414;SDS011;57837;52.064;113.478;2023-04-01T13:53:15;14.68;;;6.18;;
70414;SDS011;57837;52.064;113.478;2023-04-01T14:10:13;32.25;;;12.13;;
70414;SDS011;57837;52.064;113.478;2023-04-01T14:33:43;29.25;;;11.35;;
70414;SDS011;57837;52.064;113.478;2023-04-01T14:37:19;21.40;;;8.55;;
70414;SDS011;57837;52.064;113.478;2023-04-01T14:47:43;23.53;;;9.03;;
70414;SDS011;57837;52.064;113.478;2023-04-01T14:50:54;23.42;;;9.65;;
70414;SDS011;57837;52.064;113.478;2023-04-01T14:54:14;29.95;;;9.13;;
70414;SDS011;57837;52.064;113.478;2023-04-01T14:57:33;21.58;;;7.97;;
70414;SDS011;57837;52.064;113.478;2023-04-01T15:07:46;13.52;;;5.65;;
70414;SDS011;57837;52.064;113.478;2023-04-01T15:48:40;13.97;;;5.33;;
70414;SDS011;57837;52.064;113.478;2023-04-01T16:02:36;12.80;;;5.25;;
70414;SDS011;57837;52.064;113.478;2023-04-01T16:09:43;11.07;;;4.38;;
70414;SDS011;57837;52.064;113.478;2023-04-01T16:22:37;12.95;;;5.95;;
70414;SDS011;57837;52.064;113.478;2023-04-01T16:25:51;17.15;;;5.72;;
70414;SDS011;57837;52.064;113.478;2023-04-01T16:45:17;13.32;;;5.47;;
70414;SDS011;57837;52.064;113.478;2023-04-01T16:52:12;9.95;;;4.72;;
70414;SDS011;57837;52.064;113.478;2023-04-01T16:55:19;14.88;;;4.55;;
70414;SDS011;57837;52.064;113.478;2023-04-01T17:05:05;9.10;;;4.22;;
70414;SDS011;57837;52.064;113.478;2023-04-01T17:08:17;11.13;;;4.30;;
70414;SDS011;57837;52.064;113.478;2023-04-01T17:18:50;6.63;;;3.60;;
70414;SDS011;57837;52.064;113.478;2023-04-01T17:25:53;15.98;;;6.32;;
70414;SDS011;57837;52.064;113.478;2023-04-01T17:32:50;14.88;;;5.65;;
70414;SDS011;57837;52.064;113.478;2023-04-01T17:35:59;15.73;;;6.00;;
70414;SDS011;57837;52.064;113.478;2023-04-01T17:39:26;10.85;;;5.90;;
70414;SDS011;57837;52.064;113.478;2023-04-01T17:56:53;13.60;;;6.00;;
70414;SDS011;57837;52.064;113.478;2023-04-01T18:03:41;9.57;;;5.10;;
70414;SDS011;57837;52.064;113.478;2023-04-01T18:07:30;13.40;;;5.60;;
70414;SDS011;57837;52.064;113.478;2023-04-01T18:10:36;15.25;;;6.00;;
70414;SDS011;57837;52.064;113.478;2023-04-01T18:17:27;13.07;;;5.23;;
70414;SDS011;57837;52.064;113.478;2023-04-01T18:27:47;10.25;;;4.50;;
70414;SDS011;57837;52.064;113.478;2023-04-01T18:30:58;7.13;;;4.03;;
70414;SDS011;57837;52.064;113.478;2023-04-01T18:34:53;8.43;;;4.72;;
70414;SDS011;57837;52.064;113.478;2023-04-01T18:37:53;11.43;;;4.30;;
70414;SDS011;57837;52.064;113.478;2023-04-01T18:47:40;9.18;;;3.70;;
70414;SDS011;57837;52.064;113.478;2023-04-01T18:51:16;6.70;;;3.00;;
70414;SDS011;57837;52.064;113.478;2023-04-01T18:58:16;11.07;;;3.43;;
70414;SDS011;57837;52.064;113.478;2023-04-01T19:01:47;5.95;;;3.05;;
70414;SDS011;57837;52.064;113.478;2023-04-01T19:05:12;4.78;;;2.75;;
70414;SDS011;57837;52.064;113.478;2023-04-01T19:08:32;7.97;;;3.40;;
70414;SDS011;57837;52.064;113.478;2023-04-01T19:19:07;5.45;;;3.08;;
70414;SDS011;57837;52.064;113.478;2023-04-01T19:22:51;4.57;;;2.83;;
70414;SDS011;57837;52.064;113.478;2023-04-01T19:26:30;3.95;;;2.13;;
70414;SDS011;57837;52.064;113.478;2023-04-01T19:46:26;5.15;;;3.22;;
70414;SDS011;57837;52.064;113.478;2023-04-01T20:13:21;9.90;;;3.45;;
70414;SDS011;57837;52.064;113.478;2023-04-01T20:20:21;8.30;;;3.67;;
70414;SDS011;57837;52.064;113.478;2023-04-01T20:26:48;13.48;;;4.20;;
70414;SDS011;57837;52.064;113.478;2023-04-01T20:30:08;12.70;;;5.27;;
70414;SDS011;57837;52.064;113.478;2023-04-01T20:40:50;5.10;;;3.07;;
70414;SDS011;57837;52.064;113.478;2023-04-01T20:50:58;8.10;;;3.22;;
70414;SDS011;57837;52.064;113.478;2023-04-01T21:08:18;9.75;;;4.18;;
70414;SDS011;57837;52.064;113.478;2023-04-01T21:18:48;12.97;;;4.50;;
70414;SDS011;57837;52.064;113.478;2023-04-01T21:25:31;14.27;;;4.55;;
70414;SDS011;57837;52.064;113.478;2023-04-01T22:06:39;6.20;;;2.38;;
70414;SDS011;57837;52.064;113.478;2023-04-01T22:13:07;8.20;;;3.78;;
70414;SDS011;57837;52.064;113.478;2023-04-01T22:23:34;7.72;;;3.10;;
70414;SDS011;57837;52.064;113.478;2023-04-01T22:26:49;5.77;;;2.20;;
70414;SDS011;57837;52.064;113.478;2023-04-01T22:30:24;5.95;;;2.28;;
70414;SDS011;57837;52.064;113.478;2023-04-01T22:43:56;4.43;;;2.53;;
70414;SDS011;57837;52.064;113.478;2023-04-01T23:00:38;7.07;;;2.97;;
70414;SDS011;57837;52.064;113.478;2023-04-01T23:03:48;10.63;;;3.20;;
70414;SDS011;57837;52.064;113.478;2023-04-01T23:06:56;9.57;;;3.33;;
70414;SDS011;57837;52.064;113.478;2023-04-01T23:10:03;8.13;;;3.00;;
70414;SDS011;57837;52.064;113.478;2023-04-01T23:13:16;10.55;;;3.00;;
70414;SDS011;57837;52.064;113.478;2023-04-01T23:16:32;12.30;;;2.80;;
70414;SDS011;57837;52.064;113.478;2023-04-01T23:29:38;5.85;;;2.28;;
70414;SDS011;57837;52.064;113.478;2023-04-01T23:32:45;9.83;;;3.97;;
70414;SDS011;57837;52.064;113.478;2023-04-01T23:38:56;12.23;;;4.63;;
70414;SDS011;57837;52.064;113.478;2023-04-01T23:45:18;12.85;;;4.18;;
70414;SDS011;57837;52.064;113.478;2023-04-01T23:48:28;7.95;;;2.83;;
70414;SDS011;57837;52.064;113.478;2023-04-01T23:51:39;12.40;;;5.18;;
70414;SDS011;57837;52.064;113.478;2023-04-01T23:55:01;9.95;;;4.00;;
